createdAt,value
2019-05-02T00:00:23.221Z,0.00
2019-05-02T00:01:23.250Z,0.00
2019-05-02T00:02:23.943Z,0.00
2019-05-02T00:03:24.211Z,0.00
2019-05-02T00:04:23.182Z,0.00
2019-05-02T00:05:27.385Z,0.00
2019-05-02T00:06:24.142Z,0.00
2019-05-02T00:07:24.194Z,0.00
2019-05-02T00:08:23.113Z,0.00
2019-05-02T00:09:24.164Z,0.00
2019-05-02T00:10:24.983Z,0.00
2019-05-02T00:11:23.135Z,0.00
2019-05-02T00:12:23.075Z,0.00
2019-05-02T00:13:23.056Z,0.00
2019-05-02T00:14:23.086Z,0.00
2019-05-02T00:15:23.097Z,0.00
2019-05-02T00:16:23.028Z,0.00
2019-05-02T00:17:25.660Z,0.00
2019-05-02T00:18:23.008Z,0.00
2019-05-02T00:19:23.080Z,0.00
2019-05-02T00:20:25.991Z,0.00
2019-05-02T00:21:23.019Z,0.00
2019-05-02T00:22:22.964Z,0.00
2019-05-02T00:23:27.787Z,0.00
2019-05-02T00:24:23.937Z,0.00
2019-05-02T00:25:23.032Z,0.00
2019-05-02T00:26:24.643Z,0.00
2019-05-02T00:27:22.924Z,0.00
2019-05-02T00:28:22.884Z,0.00
2019-05-02T00:29:23.742Z,0.00
2019-05-02T00:30:22.874Z,0.00
2019-05-02T00:31:22.895Z,0.00
2019-05-02T00:32:23.669Z,0.00
2019-05-02T00:33:22.937Z,0.00
2019-05-02T00:34:22.831Z,0.00
2019-05-02T00:35:22.906Z,0.00
2019-05-02T00:36:22.809Z,0.00
2019-05-02T00:37:24.577Z,0.00
2019-05-02T00:38:22.770Z,0.00
2019-05-02T00:39:23.859Z,0.00
2019-05-02T00:40:25.880Z,0.00
2019-05-02T00:41:22.780Z,0.00
2019-05-02T00:42:24.051Z,0.00
2019-05-02T00:43:23.731Z,0.00
2019-05-02T00:44:22.701Z,0.00
2019-05-02T00:45:24.073Z,0.00
2019-05-02T00:46:22.713Z,0.00
2019-05-02T00:47:22.663Z,0.00
2019-05-02T00:48:24.421Z,0.00
2019-05-02T00:49:22.643Z,0.00
2019-05-02T00:50:22.724Z,0.00
2019-05-02T00:51:26.764Z,0.00
2019-05-02T00:52:23.651Z,0.00
2019-05-02T00:53:22.595Z,0.00
2019-05-02T00:54:24.204Z,0.00
2019-05-02T00:55:22.607Z,0.00
2019-05-02T00:56:22.569Z,0.00
2019-05-02T00:57:22.670Z,0.00
2019-05-02T00:58:22.548Z,0.00
2019-05-02T00:59:22.599Z,0.00
2019-05-02T01:00:22.518Z,0.00
2019-05-02T01:01:24.322Z,0.00
2019-05-02T01:02:23.510Z,0.00
2019-05-02T01:03:22.581Z,0.00
2019-05-02T01:04:23.257Z,0.00
2019-05-02T01:05:22.514Z,0.00
2019-05-02T01:06:22.482Z,0.00
2019-05-02T01:07:25.493Z,0.00
2019-05-02T01:08:23.193Z,0.00
2019-05-02T01:09:22.486Z,0.00
2019-05-02T01:10:22.495Z,0.00
2019-05-02T01:11:22.454Z,0.00
2019-05-02T01:12:26.524Z,0.00
2019-05-02T01:13:23.475Z,0.00
2019-05-02T01:14:22.377Z,0.00
2019-05-02T01:15:23.408Z,0.00
2019-05-02T01:16:22.357Z,0.00
2019-05-02T01:17:26.018Z,0.00
2019-05-02T01:18:23.322Z,0.00
2019-05-02T01:19:22.358Z,0.00
2019-05-02T01:20:27.362Z,0.00
2019-05-02T01:21:23.371Z,0.00
2019-05-02T01:22:22.271Z,0.00
2019-05-02T01:23:23.044Z,0.00
2019-05-02T01:24:22.300Z,0.00
2019-05-02T01:25:22.242Z,0.00
2019-05-02T01:26:24.212Z,0.00
2019-05-02T01:27:23.212Z,0.00
2019-05-02T01:28:22.213Z,0.00
2019-05-02T01:29:24.781Z,0.00
2019-05-02T01:30:23.174Z,0.00
2019-05-02T01:31:22.224Z,0.00
2019-05-02T01:32:25.142Z,0.00
2019-05-02T01:33:23.165Z,0.00
2019-05-02T01:34:22.135Z,0.00
2019-05-02T01:35:22.147Z,0.00
2019-05-02T01:36:22.138Z,0.00
2019-05-02T01:37:22.179Z,0.00
2019-05-02T01:38:26.196Z,0.00
2019-05-02T01:39:23.078Z,0.00
2019-05-02T01:40:23.119Z,0.00
2019-05-02T01:41:24.026Z,0.00
2019-05-02T01:42:24.072Z,0.00
2019-05-02T01:43:23.972Z,0.00
2019-05-02T01:44:22.030Z,0.00
2019-05-02T01:45:22.014Z,0.00
2019-05-02T01:46:24.008Z,0.00
2019-05-02T01:47:21.993Z,0.00
2019-05-02T01:48:22.033Z,0.00
2019-05-02T01:49:23.162Z,0.00
2019-05-02T01:50:22.073Z,0.00
2019-05-02T01:51:21.967Z,0.00
2019-05-02T01:52:23.696Z,0.00
2019-05-02T01:53:21.914Z,0.00
2019-05-02T01:54:22.966Z,0.00
2019-05-02T01:55:22.376Z,0.00
2019-05-02T01:56:21.916Z,0.00
2019-05-02T01:57:21.883Z,0.00
2019-05-02T01:58:22.906Z,0.00
2019-05-02T01:59:21.863Z,0.00
2019-05-02T02:00:21.838Z,0.00
2019-05-02T02:01:23.378Z,0.00
2019-05-02T02:02:21.832Z,0.00
2019-05-02T02:03:21.849Z,0.00
2019-05-02T02:04:22.310Z,0.00
2019-05-02T02:05:21.791Z,0.00
2019-05-02T02:06:21.781Z,0.00
2019-05-02T02:07:22.792Z,0.00
2019-05-02T02:08:21.754Z,0.00
2019-05-02T02:09:21.763Z,0.00
2019-05-02T02:10:21.724Z,0.00
2019-05-02T02:11:21.713Z,0.00
2019-05-02T02:12:21.814Z,0.00
2019-05-02T02:13:21.707Z,0.00
2019-05-02T02:14:21.795Z,0.00
2019-05-02T02:15:25.167Z,0.00
2019-05-02T02:16:22.666Z,0.00
2019-05-02T02:17:21.676Z,0.00
2019-05-02T02:18:22.261Z,0.00
2019-05-02T02:19:22.627Z,0.00
2019-05-02T02:20:21.717Z,0.00
2019-05-02T02:21:25.615Z,0.00
2019-05-02T02:22:22.708Z,0.00
2019-05-02T02:23:21.590Z,0.00
2019-05-02T02:24:25.087Z,0.00
2019-05-02T02:25:21.573Z,0.00
2019-05-02T02:26:21.614Z,0.00
2019-05-02T02:27:24.550Z,0.00
2019-05-02T02:28:21.542Z,0.00
2019-05-02T02:29:21.622Z,0.00
2019-05-02T02:30:24.605Z,0.00
2019-05-02T02:31:21.570Z,0.00
2019-05-02T02:32:27.154Z,0.00
2019-05-02T02:33:22.475Z,0.00
2019-05-02T02:34:29.413Z,0.00
2019-05-02T02:35:22.467Z,0.00
2019-05-02T02:36:32.071Z,0.00
2019-05-02T02:37:22.442Z,0.00
2019-05-02T02:38:26.932Z,0.00
2019-05-02T02:39:22.418Z,0.00
2019-05-02T02:40:21.471Z,0.00
2019-05-02T02:41:21.394Z,0.00
2019-05-02T02:42:24.983Z,0.00
2019-05-02T02:43:33.476Z,0.00
2019-05-02T02:44:22.352Z,0.00
2019-05-02T02:45:21.410Z,0.00
2019-05-02T02:46:21.341Z,0.00
2019-05-02T02:47:22.422Z,0.00
2019-05-02T02:48:21.305Z,0.00
2019-05-02T02:49:24.501Z,0.00
2019-05-02T02:50:21.293Z,0.00
2019-05-02T02:51:24.542Z,0.00
2019-05-02T02:52:21.276Z,0.00
2019-05-02T02:53:24.248Z,0.00
2019-05-02T02:54:21.247Z,0.00
2019-05-02T02:55:24.518Z,0.00
2019-05-02T02:56:21.224Z,0.00
2019-05-02T02:57:26.511Z,0.00
2019-05-02T02:58:22.212Z,0.00
2019-05-02T02:59:26.366Z,0.00
2019-05-02T03:00:22.169Z,0.00
2019-05-02T03:01:29.075Z,0.00
2019-05-02T03:02:22.180Z,0.00
2019-05-02T03:03:28.029Z,0.00
2019-05-02T03:04:22.229Z,0.00
2019-05-02T03:05:25.950Z,0.00
2019-05-02T03:06:22.161Z,0.00
2019-05-02T03:07:26.229Z,0.00
2019-05-02T03:08:23.123Z,0.00
2019-05-02T03:09:26.591Z,0.00
2019-05-02T03:10:22.132Z,0.00
2019-05-02T03:11:23.831Z,0.00
2019-05-02T03:12:21.108Z,0.00
2019-05-02T03:13:22.025Z,0.00
2019-05-02T03:14:21.086Z,0.00
2019-05-02T03:15:28.004Z,0.00
2019-05-02T03:16:22.005Z,0.00
2019-05-02T03:17:26.404Z,0.00
2019-05-02T03:18:21.987Z,0.00
2019-05-02T03:19:23.371Z,0.00
2019-05-02T03:20:22.016Z,0.00
2019-05-02T03:21:22.613Z,0.00
2019-05-02T03:22:21.034Z,0.00
2019-05-02T03:23:22.350Z,0.00
2019-05-02T03:24:20.972Z,0.00
2019-05-02T03:25:25.111Z,0.00
2019-05-02T03:26:21.891Z,0.00
2019-05-02T03:27:20.974Z,0.00
2019-05-02T03:28:21.124Z,0.00
2019-05-02T03:29:20.905Z,0.00
2019-05-02T03:30:32.464Z,0.00
2019-05-02T03:31:25.437Z,0.00
2019-05-02T03:32:33.621Z,0.00
2019-05-02T03:33:21.823Z,0.00
2019-05-02T03:34:20.844Z,0.00
2019-05-02T03:35:39.650Z,0.00
2019-05-02T03:36:30.110Z,0.00
2019-05-02T03:37:21.756Z,0.00
2019-05-02T03:38:31.694Z,5.62
2019-05-02T03:39:21.749Z,5.62
2019-05-02T03:40:20.751Z,5.62
2019-05-02T03:41:23.292Z,5.62
2019-05-02T03:42:20.718Z,5.62
2019-05-02T03:43:25.568Z,5.62
2019-05-02T03:44:26.101Z,5.62
2019-05-02T03:45:20.690Z,11.25
2019-05-02T03:46:22.707Z,11.25
2019-05-02T03:47:20.649Z,11.25
2019-05-02T03:48:25.667Z,11.25
2019-05-02T03:49:21.626Z,16.88
2019-05-02T03:50:31.161Z,16.88
2019-05-02T03:51:25.025Z,16.88
2019-05-02T03:52:20.592Z,22.50
2019-05-02T03:53:24.947Z,22.50
2019-05-02T03:54:21.637Z,22.50
2019-05-02T03:55:23.929Z,22.50
2019-05-02T03:56:21.546Z,28.12
2019-05-02T03:57:32.244Z,28.12
2019-05-02T03:58:21.554Z,33.75
2019-05-02T03:59:20.534Z,33.75
2019-05-02T04:00:23.765Z,33.75
2019-05-02T04:01:20.587Z,39.38
2019-05-02T04:02:21.784Z,39.38
2019-05-02T04:03:20.476Z,45.00
2019-05-02T04:04:21.055Z,45.00
2019-05-02T04:05:21.482Z,45.00
2019-05-02T04:06:23.361Z,50.62
2019-05-02T04:07:20.489Z,50.62
2019-05-02T04:08:22.554Z,56.25
2019-05-02T04:09:20.411Z,61.88
2019-05-02T04:10:21.465Z,61.88
2019-05-02T04:11:20.383Z,67.50
2019-05-02T04:12:21.840Z,67.50
2019-05-02T04:13:20.375Z,73.12
2019-05-02T04:14:36.774Z,78.75
2019-05-02T04:15:21.333Z,78.75
2019-05-02T04:16:20.402Z,78.75
2019-05-02T04:17:20.304Z,78.75
2019-05-02T04:18:21.404Z,78.75
2019-05-02T04:19:20.285Z,84.38
2019-05-02T04:20:20.376Z,84.38
2019-05-02T04:21:24.467Z,90.00
2019-05-02T04:22:21.327Z,90.00
2019-05-02T04:23:21.316Z,84.38
2019-05-02T04:24:21.238Z,84.38
2019-05-02T04:25:20.229Z,84.38
2019-05-02T04:26:20.278Z,90.00
2019-05-02T04:27:20.212Z,90.00
2019-05-02T04:28:20.279Z,95.62
2019-05-02T04:29:24.499Z,101.25
2019-05-02T04:30:21.160Z,112.50
2019-05-02T04:31:24.862Z,123.75
2019-05-02T04:32:21.140Z,129.38
2019-05-02T04:33:20.150Z,135.00
2019-05-02T04:34:20.141Z,140.62
2019-05-02T04:35:20.111Z,151.88
2019-05-02T04:36:20.165Z,163.12
2019-05-02T04:37:20.089Z,168.75
2019-05-02T04:38:30.845Z,174.38
2019-05-02T04:39:21.731Z,185.62
2019-05-02T04:40:20.043Z,202.50
2019-05-02T04:41:28.664Z,219.38
2019-05-02T04:42:23.172Z,230.62
2019-05-02T04:43:20.035Z,247.50
2019-05-02T04:44:20.020Z,247.50
2019-05-02T04:45:26.436Z,247.50
2019-05-02T04:46:27.166Z,241.88
2019-05-02T04:47:22.165Z,247.50
2019-05-02T04:48:20.078Z,230.62
2019-05-02T04:49:28.615Z,225.00
2019-05-02T04:50:25.267Z,230.62
2019-05-02T04:51:20.601Z,230.62
2019-05-02T04:52:21.122Z,236.25
2019-05-02T04:53:25.931Z,241.88
2019-05-02T04:54:26.294Z,253.12
2019-05-02T04:55:28.311Z,264.38
2019-05-02T04:56:20.874Z,275.62
2019-05-02T04:57:19.894Z,286.88
2019-05-02T04:58:27.553Z,292.50
2019-05-02T04:59:23.023Z,292.50
2019-05-02T05:00:19.894Z,303.75
2019-05-02T05:01:21.367Z,303.75
2019-05-02T05:02:23.020Z,309.38
2019-05-02T05:03:21.191Z,315.00
2019-05-02T05:04:19.816Z,320.62
2019-05-02T05:05:25.435Z,326.25
2019-05-02T05:06:20.817Z,331.88
2019-05-02T05:07:19.741Z,343.12
2019-05-02T05:08:26.646Z,348.75
2019-05-02T05:09:20.731Z,360.00
2019-05-02T05:10:20.790Z,371.25
2019-05-02T05:11:24.651Z,376.88
2019-05-02T05:12:20.693Z,382.50
2019-05-02T05:13:22.933Z,388.12
2019-05-02T05:14:19.779Z,393.75
2019-05-02T05:15:36.259Z,399.38
2019-05-02T05:16:20.643Z,405.00
2019-05-02T05:17:20.098Z,416.25
2019-05-02T05:18:19.612Z,421.88
2019-05-02T05:19:23.049Z,427.50
2019-05-02T05:20:20.603Z,433.12
2019-05-02T05:21:24.657Z,438.75
2019-05-02T05:22:20.564Z,444.38
2019-05-02T05:23:21.538Z,450.00
2019-05-02T05:24:19.559Z,461.25
2019-05-02T05:25:21.432Z,472.50
2019-05-02T05:26:19.528Z,478.12
2019-05-02T05:27:22.738Z,483.75
2019-05-02T05:28:20.060Z,489.38
2019-05-02T05:29:23.291Z,489.38
2019-05-02T05:30:19.488Z,495.00
2019-05-02T05:31:24.089Z,500.62
2019-05-02T05:32:20.450Z,506.25
2019-05-02T05:33:19.528Z,517.50
2019-05-02T05:34:22.731Z,523.12
2019-05-02T05:35:20.430Z,528.75
2019-05-02T05:36:20.039Z,528.75
2019-05-02T05:37:20.392Z,534.38
2019-05-02T05:38:22.956Z,540.00
2019-05-02T05:39:20.407Z,551.25
2019-05-02T05:40:22.534Z,556.88
2019-05-02T05:41:23.155Z,568.12
2019-05-02T05:42:23.455Z,573.75
2019-05-02T05:43:20.657Z,590.62
2019-05-02T05:44:23.199Z,596.25
2019-05-02T05:45:20.317Z,601.88
2019-05-02T05:46:19.325Z,601.88
2019-05-02T05:47:21.345Z,601.88
2019-05-02T05:48:19.355Z,607.50
2019-05-02T05:49:21.770Z,618.75
2019-05-02T05:50:19.259Z,618.75
2019-05-02T05:51:20.747Z,630.00
2019-05-02T05:52:19.330Z,635.62
2019-05-02T05:53:21.411Z,641.25
2019-05-02T05:54:20.328Z,646.88
2019-05-02T05:55:24.056Z,658.12
2019-05-02T05:56:20.185Z,663.75
2019-05-02T05:57:21.112Z,663.75
2019-05-02T05:58:19.161Z,669.38
2019-05-02T05:59:22.304Z,675.00
2019-05-02T06:00:22.975Z,680.62
2019-05-02T06:01:34.419Z,691.88
2019-05-02T06:02:20.112Z,697.50
2019-05-02T06:06:23.210Z,888.75
2019-05-02T06:07:11.774Z,1271.25
2019-05-02T06:08:13.851Z,1383.75
2019-05-02T06:09:13.963Z,1406.25
2019-05-02T06:10:19.780Z,1423.12
2019-05-02T06:11:14.823Z,1434.38
2019-05-02T06:12:17.769Z,1428.75
2019-05-02T06:13:12.927Z,1440.00
2019-05-02T06:14:15.278Z,1473.75
2019-05-02T06:15:11.700Z,1456.88
2019-05-02T06:16:15.067Z,1524.38
2019-05-02T06:17:11.665Z,1552.50
2019-05-02T06:20:35.860Z,1479.38
2019-05-02T06:21:27.901Z,1451.25
2019-05-02T06:22:27.902Z,1479.38
2019-05-02T06:23:31.009Z,1580.62
2019-05-02T06:24:28.884Z,1659.38
2019-05-02T06:25:34.355Z,1726.88
2019-05-02T06:26:28.855Z,1704.38
2019-05-02T06:27:30.460Z,1569.38
2019-05-02T06:28:27.824Z,1575.00
2019-05-02T06:29:29.945Z,1698.75
2019-05-02T06:30:31.046Z,1732.50
2019-05-02T06:31:27.889Z,1755.00
2019-05-02T06:32:27.776Z,1800.00
2019-05-02T06:33:30.526Z,1805.62
2019-05-02T06:34:27.808Z,1856.25
2019-05-02T06:35:27.759Z,1884.38
2019-05-02T06:36:32.107Z,1906.88
2019-05-02T06:37:28.729Z,1906.88
2019-05-02T06:38:27.722Z,1935.00
2019-05-02T06:39:31.975Z,1951.88
2019-05-02T06:40:27.777Z,1980.00
2019-05-02T06:41:27.782Z,1980.00
2019-05-02T06:42:32.182Z,2002.50
2019-05-02T06:43:27.662Z,2047.50
2019-05-02T06:44:27.655Z,2030.62
2019-05-02T06:45:31.865Z,2058.75
2019-05-02T06:46:29.569Z,2092.50
2019-05-02T06:47:27.684Z,2081.25
2019-05-02T06:48:27.617Z,2075.62
2019-05-02T06:49:27.617Z,2086.88
2019-05-02T06:50:27.613Z,2109.38
2019-05-02T06:51:28.677Z,2109.38
2019-05-02T06:52:32.758Z,2086.88
2019-05-02T06:53:28.608Z,2154.38
2019-05-02T06:54:27.538Z,2221.88
2019-05-02T06:55:28.162Z,2205.00
2019-05-02T06:56:28.530Z,2205.00
2019-05-02T06:57:27.560Z,2171.25
2019-05-02T06:58:27.496Z,2188.12
2019-05-02T06:59:27.492Z,2244.38
2019-05-02T07:00:35.588Z,2345.62
2019-05-02T07:01:28.464Z,2340.00
2019-05-02T07:02:28.266Z,2317.50
2019-05-02T07:03:28.455Z,2379.38
2019-05-02T07:04:27.429Z,2396.25
2019-05-02T07:05:28.265Z,2430.00
2019-05-02T07:06:27.844Z,2452.50
2019-05-02T07:07:31.297Z,2430.00
2019-05-02T07:08:28.463Z,2413.12
2019-05-02T07:09:39.980Z,2418.75
2019-05-02T07:10:30.927Z,2463.75
2019-05-02T07:11:28.347Z,2531.25
2019-05-02T07:12:27.388Z,2548.12
2019-05-02T07:13:27.330Z,2475.00
2019-05-02T07:14:27.434Z,2508.75
2019-05-02T07:15:27.514Z,2508.75
2019-05-02T07:16:37.579Z,2458.12
2019-05-02T07:17:32.230Z,2446.88
2019-05-02T07:18:28.325Z,2531.25
2019-05-02T07:19:29.257Z,2598.75
2019-05-02T07:20:27.383Z,2508.75
2019-05-02T07:21:27.255Z,2587.50
2019-05-02T07:22:28.293Z,2508.75
2019-05-02T07:23:27.227Z,2536.88
2019-05-02T07:24:30.801Z,2576.25
2019-05-02T07:25:27.217Z,2525.62
2019-05-02T07:26:27.187Z,2576.25
2019-05-02T07:27:28.308Z,2581.88
2019-05-02T07:28:28.158Z,2610.00
2019-05-02T07:29:27.248Z,2632.50
2019-05-02T07:30:30.069Z,2581.88
2019-05-02T07:31:28.130Z,2565.00
2019-05-02T07:32:27.140Z,2604.38
2019-05-02T07:33:27.220Z,2520.00
2019-05-02T07:34:27.091Z,2486.25
2019-05-02T07:35:27.162Z,2531.25
2019-05-02T07:36:31.124Z,2520.00
2019-05-02T07:37:28.064Z,2531.25
2019-05-02T07:38:27.597Z,2520.00
2019-05-02T07:39:27.046Z,2565.00
2019-05-02T07:40:28.115Z,2553.75
2019-05-02T07:41:29.065Z,2570.62
2019-05-02T07:42:27.016Z,2593.12
2019-05-02T07:43:26.996Z,2587.50
2019-05-02T07:44:32.064Z,2632.50
2019-05-02T07:45:27.967Z,2649.38
2019-05-02T07:46:26.988Z,2705.62
2019-05-02T07:47:28.758Z,2559.38
2019-05-02T07:48:26.941Z,2424.38
2019-05-02T07:49:32.277Z,2688.75
2019-05-02T07:50:27.921Z,2733.75
2019-05-02T07:51:26.922Z,2739.38
2019-05-02T07:52:28.848Z,2773.12
2019-05-02T07:53:26.884Z,2756.25
2019-05-02T07:54:26.953Z,2756.25
2019-05-02T07:55:26.856Z,2790.00
2019-05-02T07:56:26.936Z,2857.50
2019-05-02T07:57:30.558Z,2840.62
2019-05-02T07:58:27.811Z,2947.50
2019-05-02T07:59:26.808Z,2975.62
2019-05-02T08:00:26.867Z,2981.25
2019-05-02T08:01:26.818Z,2958.75
2019-05-02T08:02:26.798Z,3088.12
2019-05-02T08:03:29.333Z,3121.88
2019-05-02T08:04:27.759Z,3088.12
2019-05-02T08:05:26.800Z,3009.38
2019-05-02T08:06:35.014Z,3161.25
2019-05-02T08:07:34.257Z,3234.38
2019-05-02T08:08:29.934Z,3262.50
2019-05-02T08:09:26.712Z,3240.00
2019-05-02T08:10:26.686Z,3318.75
2019-05-02T08:11:32.305Z,3296.25
2019-05-02T08:12:27.686Z,3318.75
2019-05-02T08:13:26.767Z,3391.88
2019-05-02T08:14:29.182Z,3380.62
2019-05-02T08:15:27.647Z,3414.38
2019-05-02T08:16:27.429Z,3414.38
2019-05-02T08:17:26.627Z,3459.38
2019-05-02T08:18:30.440Z,3346.88
2019-05-02T08:19:26.593Z,3566.25
2019-05-02T08:20:26.580Z,3538.12
2019-05-02T08:21:27.299Z,3577.50
2019-05-02T08:22:28.652Z,3577.50
2019-05-02T08:23:27.890Z,3633.75
2019-05-02T08:24:26.602Z,3661.88
2019-05-02T08:25:26.533Z,3718.12
2019-05-02T08:26:26.524Z,3740.62
2019-05-02T08:27:29.343Z,3796.88
2019-05-02T08:28:27.494Z,3763.12
2019-05-02T08:29:28.857Z,3763.12
2019-05-02T08:30:26.456Z,3768.75
2019-05-02T08:31:26.444Z,3836.25
2019-05-02T08:32:26.467Z,3853.12
2019-05-02T08:33:29.423Z,3729.38
2019-05-02T08:34:27.449Z,4055.62
2019-05-02T08:35:28.312Z,4325.62
2019-05-02T08:36:26.410Z,4258.12
2019-05-02T08:37:26.431Z,4381.88
2019-05-02T08:38:26.390Z,4336.88
2019-05-02T08:39:33.244Z,4314.38
2019-05-02T08:40:27.378Z,4488.75
2019-05-02T08:41:27.216Z,4466.25
2019-05-02T08:42:27.684Z,4348.12
2019-05-02T08:43:27.337Z,4280.62
2019-05-02T08:44:28.408Z,4432.50
2019-05-02T08:45:26.296Z,4494.38
2019-05-02T08:46:26.411Z,4201.88
2019-05-02T08:47:28.629Z,4483.12
2019-05-02T08:48:26.267Z,4460.62
2019-05-02T08:49:26.311Z,4483.12
2019-05-02T08:50:27.107Z,4381.88
2019-05-02T08:51:27.250Z,4545.00
2019-05-02T08:52:26.251Z,4511.25
2019-05-02T08:53:26.222Z,4595.62
2019-05-02T08:54:27.944Z,4606.88
2019-05-02T08:55:29.917Z,4651.88
2019-05-02T08:56:26.182Z,4567.50
2019-05-02T08:57:30.065Z,4606.88
2019-05-02T08:58:27.164Z,4646.25
2019-05-02T08:59:26.260Z,4713.75
2019-05-02T09:00:26.147Z,4820.62
2019-05-02T09:01:34.867Z,4815.00
2019-05-02T09:02:27.479Z,4747.50
2019-05-02T09:03:27.162Z,4083.75
2019-05-02T09:04:29.114Z,3819.38
2019-05-02T09:05:26.088Z,1473.75
2019-05-02T09:06:26.060Z,4955.62
2019-05-02T09:07:26.206Z,4860.00
2019-05-02T09:08:26.064Z,4685.62
2019-05-02T09:09:28.202Z,4601.25
2019-05-02T09:10:26.032Z,4938.75
2019-05-02T09:11:26.102Z,4938.75
2019-05-02T09:12:26.003Z,5281.88
2019-05-02T09:13:29.098Z,5298.75
2019-05-02T09:14:25.984Z,4910.62
2019-05-02T09:15:28.025Z,4910.62
2019-05-02T09:16:28.607Z,2548.12
2019-05-02T09:17:35.431Z,1175.62
2019-05-02T09:18:35.039Z,5248.12
2019-05-02T09:19:26.917Z,5135.62
2019-05-02T09:20:25.910Z,1237.50
2019-05-02T09:21:32.204Z,3903.75
2019-05-02T09:22:26.885Z,5113.12
2019-05-02T09:23:27.518Z,5433.75
2019-05-02T09:24:26.921Z,5062.50
2019-05-02T09:25:25.971Z,5658.75
2019-05-02T09:26:34.983Z,3751.88
2019-05-02T09:27:26.832Z,5563.12
2019-05-02T09:28:26.951Z,1080.00
2019-05-02T09:29:25.815Z,911.25
2019-05-02T09:30:26.041Z,5675.62
2019-05-02T09:31:25.797Z,5793.75
2019-05-02T09:32:26.652Z,5765.62
2019-05-02T09:33:25.777Z,5321.25
2019-05-02T09:34:26.820Z,4083.75
2019-05-02T09:35:25.751Z,1428.75
2019-05-02T09:36:25.730Z,4258.12
2019-05-02T09:37:25.719Z,4308.75
2019-05-02T09:38:25.800Z,4387.50
2019-05-02T09:39:27.336Z,4376.25
2019-05-02T09:40:35.301Z,4151.25
2019-05-02T09:41:26.804Z,4235.62
2019-05-02T09:42:33.303Z,4185.00
2019-05-02T09:43:29.343Z,3988.12
2019-05-02T09:44:26.664Z,2401.88
2019-05-02T09:45:27.827Z,4010.62
2019-05-02T09:46:26.624Z,1243.12
2019-05-02T09:47:27.501Z,815.62
2019-05-02T09:48:26.987Z,4185.00
2019-05-02T09:49:25.596Z,4218.75
2019-05-02T09:50:31.225Z,1355.62
2019-05-02T09:51:26.557Z,3290.62
2019-05-02T09:52:25.558Z,1029.38
2019-05-02T09:53:25.784Z,1726.88
2019-05-02T09:54:25.642Z,1198.12
2019-05-02T09:55:25.520Z,2148.75
2019-05-02T09:56:25.582Z,1175.62
2019-05-02T09:57:25.491Z,1231.88
2019-05-02T09:58:25.521Z,1220.62
2019-05-02T09:59:30.117Z,1125.00
2019-05-02T10:00:26.673Z,1023.75
2019-05-02T10:01:26.535Z,990.00
2019-05-02T10:02:25.434Z,961.88
2019-05-02T10:03:25.436Z,961.88
2019-05-02T10:04:25.436Z,995.62
2019-05-02T10:05:25.487Z,1035.00
2019-05-02T10:06:25.409Z,1057.50
2019-05-02T10:07:25.430Z,1057.50
2019-05-02T10:08:25.395Z,1113.75
2019-05-02T10:09:27.239Z,1147.50
2019-05-02T10:10:25.443Z,1102.50
2019-05-02T10:11:26.296Z,1113.75
2019-05-02T10:12:25.361Z,1074.38
2019-05-02T10:13:25.330Z,978.75
2019-05-02T10:14:25.332Z,922.50
2019-05-02T10:15:25.309Z,888.75
2019-05-02T10:16:27.452Z,826.88
2019-05-02T10:17:25.284Z,781.88
2019-05-02T10:18:30.020Z,748.12
2019-05-02T10:19:26.267Z,708.75
2019-05-02T10:20:31.893Z,663.75
2019-05-02T10:21:26.237Z,635.62
2019-05-02T10:22:30.962Z,624.38
2019-05-02T10:23:26.208Z,618.75
2019-05-02T10:24:25.240Z,630.00
2019-05-02T10:25:25.168Z,613.12
2019-05-02T10:26:25.273Z,613.12
2019-05-02T10:27:25.161Z,618.75
2019-05-02T10:28:26.201Z,618.75
2019-05-02T10:29:28.278Z,618.75
2019-05-02T10:30:25.132Z,596.25
2019-05-02T10:31:27.490Z,607.50
2019-05-02T10:32:26.154Z,607.50
2019-05-02T10:33:27.958Z,618.75
2019-05-02T10:34:27.181Z,607.50
2019-05-02T10:35:28.111Z,607.50
2019-05-02T10:36:26.058Z,601.88
2019-05-02T10:37:30.570Z,607.50
2019-05-02T10:38:26.048Z,540.00
2019-05-02T10:39:28.430Z,556.88
2019-05-02T10:40:26.019Z,607.50
2019-05-02T10:41:25.028Z,646.88
2019-05-02T10:42:25.002Z,669.38
2019-05-02T10:43:26.000Z,658.12
2019-05-02T10:44:27.111Z,624.38
2019-05-02T10:45:26.041Z,658.12
2019-05-02T10:46:27.841Z,624.38
2019-05-02T10:47:25.934Z,663.75
2019-05-02T10:48:28.411Z,720.00
2019-05-02T10:49:24.944Z,731.25
2019-05-02T10:50:24.955Z,765.00
2019-05-02T10:51:26.181Z,770.62
2019-05-02T10:52:29.562Z,748.12
2019-05-02T10:53:25.886Z,748.12
2019-05-02T10:54:28.062Z,759.38
2019-05-02T10:55:33.338Z,770.62
2019-05-02T10:56:24.854Z,832.50
2019-05-02T10:57:24.829Z,849.38
2019-05-02T10:58:31.373Z,883.12
2019-05-02T10:59:25.851Z,843.75
2019-05-02T11:00:26.901Z,793.12
2019-05-02T11:01:24.783Z,843.75
2019-05-02T11:02:24.885Z,922.50
2019-05-02T11:03:24.772Z,871.88
2019-05-02T11:04:29.175Z,821.25
2019-05-02T11:05:26.641Z,900.00
2019-05-02T11:06:24.754Z,961.88
2019-05-02T11:07:26.409Z,961.88
2019-05-02T11:08:24.712Z,984.38
2019-05-02T11:09:26.398Z,1006.88
2019-05-02T11:10:24.781Z,1102.50
2019-05-02T11:11:24.679Z,1080.00
2019-05-02T11:12:30.244Z,1051.88
2019-05-02T11:13:25.659Z,1051.88
2019-05-02T11:14:24.649Z,1051.88
2019-05-02T11:15:26.805Z,1130.62
2019-05-02T11:16:25.661Z,1046.25
2019-05-02T11:17:24.612Z,984.38
2019-05-02T11:18:40.235Z,984.38
2019-05-02T11:19:25.663Z,1046.25
2019-05-02T11:20:24.594Z,1096.88
2019-05-02T11:21:25.603Z,1057.50
2019-05-02T11:22:24.545Z,950.62
2019-05-02T11:23:25.659Z,849.38
2019-05-02T11:24:24.543Z,832.50
2019-05-02T11:25:24.551Z,810.00
2019-05-02T11:26:25.287Z,781.88
2019-05-02T11:27:24.500Z,781.88
2019-05-02T11:28:24.558Z,798.75
2019-05-02T11:29:24.470Z,826.88
2019-05-02T11:30:26.486Z,894.38
2019-05-02T11:31:26.501Z,922.50
2019-05-02T11:32:24.440Z,984.38
2019-05-02T11:33:24.492Z,990.00
2019-05-02T11:34:24.414Z,961.88
2019-05-02T11:35:24.482Z,967.50
2019-05-02T11:36:27.283Z,1029.38
2019-05-02T11:37:25.485Z,1085.62
2019-05-02T11:38:40.894Z,939.38
2019-05-02T11:39:34.220Z,877.50
2019-05-02T11:40:25.396Z,883.12
2019-05-02T11:41:24.340Z,928.12
2019-05-02T11:42:27.222Z,956.25
2019-05-02T11:43:24.318Z,945.00
2019-05-02T11:44:24.349Z,928.12
2019-05-02T11:45:24.300Z,894.38
2019-05-02T11:46:24.303Z,793.12
2019-05-02T11:47:26.613Z,742.50
2019-05-02T11:48:24.320Z,849.38
2019-05-02T11:49:24.261Z,945.00
2019-05-02T11:50:26.606Z,945.00
2019-05-02T11:51:25.252Z,928.12
2019-05-02T11:52:27.383Z,933.75
2019-05-02T11:53:29.174Z,905.62
2019-05-02T11:54:24.196Z,961.88
2019-05-02T11:55:28.902Z,973.12
2019-05-02T11:56:24.195Z,888.75
2019-05-02T11:57:28.720Z,894.38
2019-05-02T11:58:25.147Z,1029.38
2019-05-02T11:59:28.225Z,1102.50
2019-05-02T12:00:25.139Z,984.38
2019-05-02T12:01:35.741Z,877.50
2019-05-02T12:02:25.109Z,832.50
2019-05-02T12:03:28.095Z,832.50
2019-05-02T12:04:25.081Z,855.00
2019-05-02T12:05:26.591Z,810.00
2019-05-02T12:06:25.072Z,770.62
2019-05-02T12:07:24.113Z,714.38
2019-05-02T12:08:24.073Z,736.88
2019-05-02T12:09:24.026Z,748.12
2019-05-02T12:10:27.912Z,753.75
2019-05-02T12:11:24.016Z,798.75
2019-05-02T12:12:27.331Z,804.38
2019-05-02T12:13:24.988Z,742.50
2019-05-02T12:14:27.447Z,703.12
2019-05-02T12:15:24.958Z,714.38
2019-05-02T12:16:24.070Z,736.88
2019-05-02T12:17:23.949Z,748.12
2019-05-02T12:18:23.960Z,798.75
2019-05-02T12:19:23.921Z,911.25
2019-05-02T12:20:24.001Z,933.75
2019-05-02T12:21:23.926Z,939.38
2019-05-02T12:22:23.981Z,905.62
2019-05-02T12:23:23.882Z,871.88
2019-05-02T12:24:23.887Z,832.50
2019-05-02T12:25:23.844Z,776.25
2019-05-02T12:26:23.954Z,742.50
2019-05-02T12:27:23.838Z,776.25
2019-05-02T12:28:23.848Z,804.38
2019-05-02T12:29:23.809Z,821.25
2019-05-02T12:30:23.797Z,838.12
2019-05-02T12:31:23.811Z,821.25
2019-05-02T12:32:24.777Z,855.00
2019-05-02T12:33:23.770Z,866.25
2019-05-02T12:34:23.860Z,871.88
2019-05-02T12:35:23.831Z,877.50
2019-05-02T12:36:23.741Z,866.25
2019-05-02T12:37:23.763Z,849.38
2019-05-02T12:38:23.711Z,843.75
2019-05-02T12:39:24.724Z,810.00
2019-05-02T12:40:23.683Z,776.25
2019-05-02T12:41:25.280Z,736.88